sensor_id;sensor_type;location;lat;lon;timestamp;P1;durP1;ratioP1;P2;durP2;ratioP2
32228;SDS011;18717;48.034;11.186;2022-12-29T00:00:10;6.95;;;6.45;;
32228;SDS011;18717;48.034;11.186;2022-12-29T00:02:39;8.35;;;6.88;;
32228;SDS011;18717;48.034;11.186;2022-12-29T00:05:07;6.40;;;5.90;;
32228;SDS011;18717;48.034;11.186;2022-12-29T00:07:36;6.88;;;6.38;;
32228;SDS011;18717;48.034;11.186;2022-12-29T00:10:04;6.07;;;5.68;;
32228;SDS011;18717;48.034;11.186;2022-12-29T00:12:32;5.93;;;5.53;;
32228;SDS011;18717;48.034;11.186;2022-12-29T00:15:14;6.68;;;6.07;;
32228;SDS011;18717;48.034;11.186;2022-12-29T00:17:59;6.05;;;5.55;;
32228;SDS011;18717;48.034;11.186;2022-12-29T00:20:27;7.30;;;6.70;;
32228;SDS011;18717;48.034;11.186;2022-12-29T00:23:13;6.07;;;5.55;;
32228;SDS011;18717;48.034;11.186;2022-12-29T00:26:02;6.32;;;5.93;;
32228;SDS011;18717;48.034;11.186;2022-12-29T00:28:47;6.30;;;5.90;;
32228;SDS011;18717;48.034;11.186;2022-12-29T00:31:33;6.63;;;6.10;;
32228;SDS011;18717;48.034;11.186;2022-12-29T00:34:18;5.47;;;5.18;;
32228;SDS011;18717;48.034;11.186;2022-12-29T00:37:03;6.07;;;5.60;;
32228;SDS011;18717;48.034;11.186;2022-12-29T00:39:32;6.13;;;5.82;;
32228;SDS011;18717;48.034;11.186;2022-12-29T00:42:17;5.63;;;5.32;;
32228;SDS011;18717;48.034;11.186;2022-12-29T00:45:03;6.40;;;5.88;;
32228;SDS011;18717;48.034;11.186;2022-12-29T00:47:31;6.53;;;6.03;;
32228;SDS011;18717;48.034;11.186;2022-12-29T00:49:59;6.30;;;5.90;;
32228;SDS011;18717;48.034;11.186;2022-12-29T00:52:26;6.22;;;5.90;;
32228;SDS011;18717;48.034;11.186;2022-12-29T00:54:55;6.50;;;6.05;;
32228;SDS011;18717;48.034;11.186;2022-12-29T00:57:22;6.30;;;6.00;;
32228;SDS011;18717;48.034;11.186;2022-12-29T00:59:50;6.78;;;6.28;;
32228;SDS011;18717;48.034;11.186;2022-12-29T01:02:17;7.22;;;6.53;;
32228;SDS011;18717;48.034;11.186;2022-12-29T01:04:45;6.45;;;5.95;;
32228;SDS011;18717;48.034;11.186;2022-12-29T01:07:13;6.60;;;6.20;;
32228;SDS011;18717;48.034;11.186;2022-12-29T01:09:40;6.00;;;5.50;;
32228;SDS011;18717;48.034;11.186;2022-12-29T01:12:27;6.55;;;6.15;;
32228;SDS011;18717;48.034;11.186;2022-12-29T01:15:11;6.10;;;5.72;;
32228;SDS011;18717;48.034;11.186;2022-12-29T01:17:40;6.40;;;6.00;;
32228;SDS011;18717;48.034;11.186;2022-12-29T01:20:08;6.40;;;6.00;;
32228;SDS011;18717;48.034;11.186;2022-12-29T01:22:36;6.50;;;6.10;;
32228;SDS011;18717;48.034;11.186;2022-12-29T01:25:04;6.53;;;6.00;;
32228;SDS011;18717;48.034;11.186;2022-12-29T01:27:34;6.25;;;5.85;;
32228;SDS011;18717;48.034;11.186;2022-12-29T01:30:02;6.40;;;6.00;;
32228;SDS011;18717;48.034;11.186;2022-12-29T01:32:30;6.40;;;5.85;;
32228;SDS011;18717;48.034;11.186;2022-12-29T01:34:58;6.95;;;6.47;;
32228;SDS011;18717;48.034;11.186;2022-12-29T01:37:25;7.80;;;7.20;;
32228;SDS011;18717;48.034;11.186;2022-12-29T01:39:53;6.25;;;5.82;;
32228;SDS011;18717;48.034;11.186;2022-12-29T01:42:22;6.65;;;6.15;;
32228;SDS011;18717;48.034;11.186;2022-12-29T01:44:54;6.25;;;5.93;;
32228;SDS011;18717;48.034;11.186;2022-12-29T01:47:26;4.65;;;4.40;;
32228;SDS011;18717;48.034;11.186;2022-12-29T01:49:58;5.93;;;5.60;;
32228;SDS011;18717;48.034;11.186;2022-12-29T01:52:29;5.65;;;5.35;;
32228;SDS011;18717;48.034;11.186;2022-12-29T01:54:57;5.68;;;5.28;;
32228;SDS011;18717;48.034;11.186;2022-12-29T01:57:27;5.97;;;5.57;;
32228;SDS011;18717;48.034;11.186;2022-12-29T02:00:00;5.95;;;5.55;;
32228;SDS011;18717;48.034;11.186;2022-12-29T02:04:58;6.03;;;5.63;;
32228;SDS011;18717;48.034;11.186;2022-12-29T02:07:30;6.20;;;5.80;;
32228;SDS011;18717;48.034;11.186;2022-12-29T02:09:58;6.40;;;6.00;;
32228;SDS011;18717;48.034;11.186;2022-12-29T02:12:27;5.90;;;5.60;;
32228;SDS011;18717;48.034;11.186;2022-12-29T02:14:56;5.80;;;5.40;;
32228;SDS011;18717;48.034;11.186;2022-12-29T02:17:29;6.05;;;5.65;;
32228;SDS011;18717;48.034;11.186;2022-12-29T02:20:25;5.80;;;5.50;;
32228;SDS011;18717;48.034;11.186;2022-12-29T02:26:03;6.35;;;6.00;;
32228;SDS011;18717;48.034;11.186;2022-12-29T02:28:48;6.07;;;5.68;;
32228;SDS011;18717;48.034;11.186;2022-12-29T02:31:36;5.90;;;5.50;;
32228;SDS011;18717;48.034;11.186;2022-12-29T02:34:10;6.05;;;5.75;;
32228;SDS011;18717;48.034;11.186;2022-12-29T02:36:45;6.72;;;6.32;;
32228;SDS011;18717;48.034;11.186;2022-12-29T02:39:20;6.43;;;6.05;;
32228;SDS011;18717;48.034;11.186;2022-12-29T02:41:54;5.97;;;5.57;;
32228;SDS011;18717;48.034;11.186;2022-12-29T02:44:27;8.10;;;5.32;;
32228;SDS011;18717;48.034;11.186;2022-12-29T02:47:00;6.13;;;5.75;;
32228;SDS011;18717;48.034;11.186;2022-12-29T02:49:33;5.97;;;5.60;;
32228;SDS011;18717;48.034;11.186;2022-12-29T02:52:03;6.15;;;5.85;;
32228;SDS011;18717;48.034;11.186;2022-12-29T02:54:32;5.35;;;5.10;;
32228;SDS011;18717;48.034;11.186;2022-12-29T02:57:13;6.03;;;5.72;;
32228;SDS011;18717;48.034;11.186;2022-12-29T02:59:43;6.03;;;5.57;;
32228;SDS011;18717;48.034;11.186;2022-12-29T03:02:21;6.00;;;5.70;;
32228;SDS011;18717;48.034;11.186;2022-12-29T03:05:10;6.47;;;6.07;;
32228;SDS011;18717;48.034;11.186;2022-12-29T03:07:45;6.35;;;5.78;;
32228;SDS011;18717;48.034;11.186;2022-12-29T03:12:47;6.03;;;5.70;;
32228;SDS011;18717;48.034;11.186;2022-12-29T03:15:36;6.30;;;5.82;;
32228;SDS011;18717;48.034;11.186;2022-12-29T03:18:27;6.03;;;5.72;;
32228;SDS011;18717;48.034;11.186;2022-12-29T03:21:02;6.13;;;5.68;;
32228;SDS011;18717;48.034;11.186;2022-12-29T03:23:32;6.00;;;5.60;;
32228;SDS011;18717;48.034;11.186;2022-12-29T03:26:01;6.35;;;5.80;;
32228;SDS011;18717;48.034;11.186;2022-12-29T03:28:32;6.75;;;6.15;;
32228;SDS011;18717;48.034;11.186;2022-12-29T03:31:03;6.22;;;5.93;;
32228;SDS011;18717;48.034;11.186;2022-12-29T03:33:33;6.47;;;6.07;;
32228;SDS011;18717;48.034;11.186;2022-12-29T03:36:03;5.82;;;5.53;;
32228;SDS011;18717;48.034;11.186;2022-12-29T03:38:35;6.57;;;6.18;;
32228;SDS011;18717;48.034;11.186;2022-12-29T03:41:04;6.63;;;6.10;;
32228;SDS011;18717;48.034;11.186;2022-12-29T03:43:34;6.90;;;6.57;;
32228;SDS011;18717;48.034;11.186;2022-12-29T03:46:01;6.03;;;5.65;;
32228;SDS011;18717;48.034;11.186;2022-12-29T03:48:29;6.22;;;5.90;;
32228;SDS011;18717;48.034;11.186;2022-12-29T03:51:01;6.43;;;6.05;;
32228;SDS011;18717;48.034;11.186;2022-12-29T03:53:28;6.50;;;6.10;;
32228;SDS011;18717;48.034;11.186;2022-12-29T03:55:56;6.57;;;6.18;;
32228;SDS011;18717;48.034;11.186;2022-12-29T03:58:24;6.30;;;5.90;;
32228;SDS011;18717;48.034;11.186;2022-12-29T04:00:51;6.75;;;6.25;;
32228;SDS011;18717;48.034;11.186;2022-12-29T04:03:19;6.50;;;6.20;;
32228;SDS011;18717;48.034;11.186;2022-12-29T04:05:47;6.43;;;6.13;;
32228;SDS011;18717;48.034;11.186;2022-12-29T04:08:15;6.55;;;6.22;;
32228;SDS011;18717;48.034;11.186;2022-12-29T04:10:43;6.60;;;6.22;;
32228;SDS011;18717;48.034;11.186;2022-12-29T04:13:11;6.80;;;6.30;;
32228;SDS011;18717;48.034;11.186;2022-12-29T04:15:39;6.75;;;6.35;;
32228;SDS011;18717;48.034;11.186;2022-12-29T04:18:08;6.50;;;6.20;;
32228;SDS011;18717;48.034;11.186;2022-12-29T04:20:36;6.90;;;6.40;;
32228;SDS011;18717;48.034;11.186;2022-12-29T04:23:35;6.50;;;6.20;;
32228;SDS011;18717;48.034;11.186;2022-12-29T04:26:03;6.55;;;6.25;;
32228;SDS011;18717;48.034;11.186;2022-12-29T04:28:32;6.70;;;6.30;;
32228;SDS011;18717;48.034;11.186;2022-12-29T04:31:01;6.45;;;6.05;;
32228;SDS011;18717;48.034;11.186;2022-12-29T04:33:29;6.57;;;6.28;;
32228;SDS011;18717;48.034;11.186;2022-12-29T04:35:56;6.38;;;6.07;;
32228;SDS011;18717;48.034;11.186;2022-12-29T04:38:24;6.85;;;6.55;;
32228;SDS011;18717;48.034;11.186;2022-12-29T04:40:53;6.22;;;5.82;;
32228;SDS011;18717;48.034;11.186;2022-12-29T04:43:21;6.30;;;5.93;;
32228;SDS011;18717;48.034;11.186;2022-12-29T04:45:49;6.72;;;6.40;;
32228;SDS011;18717;48.034;11.186;2022-12-29T04:48:16;6.60;;;6.15;;
32228;SDS011;18717;48.034;11.186;2022-12-29T04:50:46;7.00;;;6.60;;
32228;SDS011;18717;48.034;11.186;2022-12-29T04:53:14;6.70;;;6.35;;
32228;SDS011;18717;48.034;11.186;2022-12-29T04:55:43;7.03;;;6.50;;
32228;SDS011;18717;48.034;11.186;2022-12-29T04:58:13;6.65;;;6.28;;
32228;SDS011;18717;48.034;11.186;2022-12-29T05:00:47;7.38;;;6.90;;
32228;SDS011;18717;48.034;11.186;2022-12-29T05:03:15;7.30;;;6.80;;
32228;SDS011;18717;48.034;11.186;2022-12-29T05:05:43;6.93;;;6.47;;
32228;SDS011;18717;48.034;11.186;2022-12-29T05:08:11;6.68;;;6.38;;
32228;SDS011;18717;48.034;11.186;2022-12-29T05:10:38;6.45;;;6.05;;
32228;SDS011;18717;48.034;11.186;2022-12-29T05:13:06;7.43;;;6.93;;
32228;SDS011;18717;48.034;11.186;2022-12-29T05:15:35;6.32;;;6.03;;
32228;SDS011;18717;48.034;11.186;2022-12-29T05:18:03;6.53;;;6.20;;
32228;SDS011;18717;48.034;11.186;2022-12-29T05:20:31;6.93;;;6.10;;
32228;SDS011;18717;48.034;11.186;2022-12-29T05:22:59;6.68;;;6.25;;
32228;SDS011;18717;48.034;11.186;2022-12-29T05:25:26;6.65;;;6.35;;
32228;SDS011;18717;48.034;11.186;2022-12-29T05:27:54;8.38;;;7.78;;
32228;SDS011;18717;48.034;11.186;2022-12-29T05:30:22;8.23;;;7.63;;
32228;SDS011;18717;48.034;11.186;2022-12-29T05:32:51;8.48;;;7.68;;
32228;SDS011;18717;48.034;11.186;2022-12-29T05:35:18;7.03;;;6.63;;
32228;SDS011;18717;48.034;11.186;2022-12-29T05:37:46;6.50;;;6.20;;
32228;SDS011;18717;48.034;11.186;2022-12-29T05:40:13;6.40;;;6.10;;
32228;SDS011;18717;48.034;11.186;2022-12-29T05:42:42;6.43;;;6.13;;
32228;SDS011;18717;48.034;11.186;2022-12-29T05:45:10;6.30;;;6.00;;
32228;SDS011;18717;48.034;11.186;2022-12-29T05:47:37;7.05;;;6.57;;
32228;SDS011;18717;48.034;11.186;2022-12-29T05:50:07;7.32;;;6.72;;
32228;SDS011;18717;48.034;11.186;2022-12-29T05:52:35;6.20;;;5.90;;
32228;SDS011;18717;48.034;11.186;2022-12-29T05:55:03;7.03;;;6.63;;
32228;SDS011;18717;48.034;11.186;2022-12-29T05:57:31;7.25;;;6.68;;
32228;SDS011;18717;48.034;11.186;2022-12-29T05:59:59;6.38;;;5.97;;
32228;SDS011;18717;48.034;11.186;2022-12-29T06:02:26;6.80;;;6.18;;
32228;SDS011;18717;48.034;11.186;2022-12-29T06:04:54;7.53;;;6.88;;
32228;SDS011;18717;48.034;11.186;2022-12-29T06:07:24;7.10;;;6.70;;
32228;SDS011;18717;48.034;11.186;2022-12-29T06:09:51;7.68;;;7.05;;
32228;SDS011;18717;48.034;11.186;2022-12-29T06:12:19;7.25;;;6.80;;
32228;SDS011;18717;48.034;11.186;2022-12-29T06:14:47;6.88;;;6.47;;
32228;SDS011;18717;48.034;11.186;2022-12-29T06:17:15;6.70;;;6.40;;
32228;SDS011;18717;48.034;11.186;2022-12-29T06:19:42;7.75;;;7.15;;
32228;SDS011;18717;48.034;11.186;2022-12-29T06:22:10;7.38;;;6.88;;
32228;SDS011;18717;48.034;11.186;2022-12-29T06:24:40;8.80;;;8.20;;
32228;SDS011;18717;48.034;11.186;2022-12-29T06:27:08;10.10;;;9.30;;
32228;SDS011;18717;48.034;11.186;2022-12-29T06:29:36;10.38;;;9.38;;
32228;SDS011;18717;48.034;11.186;2022-12-29T06:32:06;9.20;;;8.32;;
32228;SDS011;18717;48.034;11.186;2022-12-29T06:34:34;8.98;;;8.27;;
32228;SDS011;18717;48.034;11.186;2022-12-29T06:37:02;9.25;;;8.38;;
32228;SDS011;18717;48.034;11.186;2022-12-29T06:39:30;8.32;;;7.63;;
32228;SDS011;18717;48.034;11.186;2022-12-29T06:41:59;13.07;;;10.23;;
32228;SDS011;18717;48.034;11.186;2022-12-29T06:44:26;9.98;;;8.60;;
32228;SDS011;18717;48.034;11.186;2022-12-29T06:46:54;9.13;;;8.32;;
32228;SDS011;18717;48.034;11.186;2022-12-29T06:49:23;12.63;;;10.00;;
32228;SDS011;18717;48.034;11.186;2022-12-29T06:51:51;12.35;;;10.35;;
32228;SDS011;18717;48.034;11.186;2022-12-29T06:54:18;10.27;;;9.20;;
32228;SDS011;18717;48.034;11.186;2022-12-29T06:56:46;17.40;;;10.65;;
32228;SDS011;18717;48.034;11.186;2022-12-29T06:59:15;23.90;;;13.65;;
32228;SDS011;18717;48.034;11.186;2022-12-29T07:01:43;16.25;;;11.77;;
32228;SDS011;18717;48.034;11.186;2022-12-29T07:04:11;9.90;;;8.73;;
32228;SDS011;18717;48.034;11.186;2022-12-29T07:06:38;10.15;;;9.05;;
32228;SDS011;18717;48.034;11.186;2022-12-29T07:09:06;8.07;;;7.35;;
32228;SDS011;18717;48.034;11.186;2022-12-29T07:11:34;6.82;;;6.43;;
32228;SDS011;18717;48.034;11.186;2022-12-29T07:14:02;8.63;;;6.82;;
32228;SDS011;18717;48.034;11.186;2022-12-29T07:16:31;7.43;;;6.80;;
32228;SDS011;18717;48.034;11.186;2022-12-29T07:19:00;7.15;;;6.75;;
32228;SDS011;18717;48.034;11.186;2022-12-29T07:21:28;8.43;;;7.68;;
32228;SDS011;18717;48.034;11.186;2022-12-29T07:23:55;8.20;;;7.60;;
32228;SDS011;18717;48.034;11.186;2022-12-29T07:26:23;7.00;;;6.60;;
32228;SDS011;18717;48.034;11.186;2022-12-29T07:28:53;7.35;;;6.85;;
32228;SDS011;18717;48.034;11.186;2022-12-29T07:31:22;6.75;;;6.45;;
32228;SDS011;18717;48.034;11.186;2022-12-29T07:33:51;6.80;;;6.40;;
32228;SDS011;18717;48.034;11.186;2022-12-29T07:36:19;6.85;;;6.45;;
32228;SDS011;18717;48.034;11.186;2022-12-29T07:38:46;7.18;;;6.68;;
32228;SDS011;18717;48.034;11.186;2022-12-29T07:41:14;6.40;;;6.10;;
32228;SDS011;18717;48.034;11.186;2022-12-29T07:43:42;6.47;;;6.18;;
32228;SDS011;18717;48.034;11.186;2022-12-29T07:46:09;7.03;;;6.63;;
32228;SDS011;18717;48.034;11.186;2022-12-29T07:48:58;8.95;;;8.20;;
32228;SDS011;18717;48.034;11.186;2022-12-29T07:51:26;10.02;;;7.80;;
32228;SDS011;18717;48.034;11.186;2022-12-29T07:53:54;7.97;;;7.43;;
32228;SDS011;18717;48.034;11.186;2022-12-29T07:56:21;6.60;;;6.20;;
32228;SDS011;18717;48.034;11.186;2022-12-29T07:58:49;7.28;;;6.88;;
32228;SDS011;18717;48.034;11.186;2022-12-29T08:01:17;10.35;;;7.10;;
32228;SDS011;18717;48.034;11.186;2022-12-29T08:03:44;6.63;;;6.22;;
32228;SDS011;18717;48.034;11.186;2022-12-29T08:06:19;7.18;;;6.78;;
32228;SDS011;18717;48.034;11.186;2022-12-29T08:08:47;6.63;;;6.20;;
32228;SDS011;18717;48.034;11.186;2022-12-29T08:11:14;7.30;;;6.80;;
32228;SDS011;18717;48.034;11.186;2022-12-29T08:13:42;7.20;;;6.80;;
32228;SDS011;18717;48.034;11.186;2022-12-29T08:16:09;8.05;;;7.47;;
32228;SDS011;18717;48.034;11.186;2022-12-29T08:18:37;8.52;;;7.75;;
32228;SDS011;18717;48.034;11.186;2022-12-29T08:21:05;8.23;;;7.55;;
32228;SDS011;18717;48.034;11.186;2022-12-29T08:23:34;14.18;;;8.65;;
32228;SDS011;18717;48.034;11.186;2022-12-29T08:26:02;18.98;;;12.35;;
32228;SDS011;18717;48.034;11.186;2022-12-29T08:28:31;17.70;;;10.55;;
32228;SDS011;18717;48.034;11.186;2022-12-29T08:30:59;9.80;;;8.80;;
32228;SDS011;18717;48.034;11.186;2022-12-29T08:33:28;8.73;;;8.02;;
32228;SDS011;18717;48.034;11.186;2022-12-29T08:35:59;8.70;;;8.10;;
32228;SDS011;18717;48.034;11.186;2022-12-29T08:38:27;8.32;;;7.72;;
32228;SDS011;18717;48.034;11.186;2022-12-29T08:40:57;7.75;;;7.00;;
32228;SDS011;18717;48.034;11.186;2022-12-29T08:43:27;7.50;;;7.10;;
32228;SDS011;18717;48.034;11.186;2022-12-29T08:45:56;7.28;;;6.72;;
32228;SDS011;18717;48.034;11.186;2022-12-29T08:48:24;7.88;;;7.47;;
32228;SDS011;18717;48.034;11.186;2022-12-29T08:50:52;7.55;;;7.05;;
32228;SDS011;18717;48.034;11.186;2022-12-29T08:53:20;7.68;;;7.28;;
32228;SDS011;18717;48.034;11.186;2022-12-29T08:55:54;7.50;;;7.00;;
32228;SDS011;18717;48.034;11.186;2022-12-29T08:58:31;8.18;;;7.53;;
32228;SDS011;18717;48.034;11.186;2022-12-29T09:00:59;8.18;;;7.53;;
32228;SDS011;18717;48.034;11.186;2022-12-29T09:03:27;7.93;;;7.40;;
32228;SDS011;18717;48.034;11.186;2022-12-29T09:06:15;8.27;;;7.70;;
32228;SDS011;18717;48.034;11.186;2022-12-29T09:08:44;7.90;;;7.40;;
32228;SDS011;18717;48.034;11.186;2022-12-29T09:11:12;7.97;;;7.47;;
32228;SDS011;18717;48.034;11.186;2022-12-29T09:13:43;8.00;;;7.40;;
32228;SDS011;18717;48.034;11.186;2022-12-29T09:16:10;8.27;;;7.65;;
32228;SDS011;18717;48.034;11.186;2022-12-29T09:18:39;7.05;;;6.65;;
32228;SDS011;18717;48.034;11.186;2022-12-29T09:21:07;7.55;;;7.13;;
32228;SDS011;18717;48.034;11.186;2022-12-29T09:23:34;7.95;;;7.25;;
32228;SDS011;18717;48.034;11.186;2022-12-29T09:26:02;7.78;;;7.32;;
32228;SDS011;18717;48.034;11.186;2022-12-29T09:28:31;7.65;;;7.15;;
32228;SDS011;18717;48.034;11.186;2022-12-29T09:31:00;7.88;;;7.28;;
32228;SDS011;18717;48.034;11.186;2022-12-29T09:33:28;7.75;;;7.35;;
32228;SDS011;18717;48.034;11.186;2022-12-29T09:35:56;8.07;;;7.45;;
32228;SDS011;18717;48.034;11.186;2022-12-29T09:38:25;7.40;;;7.00;;
32228;SDS011;18717;48.034;11.186;2022-12-29T09:40:54;7.22;;;6.90;;
32228;SDS011;18717;48.034;11.186;2022-12-29T09:43:26;7.85;;;7.30;;
32228;SDS011;18717;48.034;11.186;2022-12-29T09:46:06;8.40;;;7.88;;
32228;SDS011;18717;48.034;11.186;2022-12-29T09:48:41;7.60;;;7.20;;
32228;SDS011;18717;48.034;11.186;2022-12-29T09:51:12;8.55;;;7.88;;
32228;SDS011;18717;48.034;11.186;2022-12-29T09:53:42;14.55;;;10.57;;
32228;SDS011;18717;48.034;11.186;2022-12-29T09:56:13;10.50;;;9.43;;
32228;SDS011;18717;48.034;11.186;2022-12-29T09:58:44;9.63;;;8.73;;
32228;SDS011;18717;48.034;11.186;2022-12-29T10:01:21;8.65;;;8.02;;
32228;SDS011;18717;48.034;11.186;2022-12-29T10:03:54;8.20;;;7.60;;
32228;SDS011;18717;48.034;11.186;2022-12-29T10:06:24;8.35;;;7.75;;
32228;SDS011;18717;48.034;11.186;2022-12-29T10:08:55;8.57;;;7.97;;
32228;SDS011;18717;48.034;11.186;2022-12-29T10:11:29;10.20;;;8.07;;
32228;SDS011;18717;48.034;11.186;2022-12-29T10:14:17;8.35;;;7.65;;
32228;SDS011;18717;48.034;11.186;2022-12-29T10:16:57;8.27;;;7.70;;
32228;SDS011;18717;48.034;11.186;2022-12-29T10:19:37;8.98;;;8.30;;
32228;SDS011;18717;48.034;11.186;2022-12-29T10:22:14;7.60;;;7.30;;
32228;SDS011;18717;48.034;11.186;2022-12-29T10:24:50;8.95;;;8.23;;
32228;SDS011;18717;48.034;11.186;2022-12-29T10:27:20;8.10;;;7.63;;
32228;SDS011;18717;48.034;11.186;2022-12-29T10:29:48;8.05;;;7.65;;
32228;SDS011;18717;48.034;11.186;2022-12-29T10:32:23;8.30;;;7.80;;
32228;SDS011;18717;48.034;11.186;2022-12-29T10:34:54;8.75;;;8.25;;
32228;SDS011;18717;48.034;11.186;2022-12-29T10:37:27;8.68;;;8.18;;
32228;SDS011;18717;48.034;11.186;2022-12-29T10:39:59;8.48;;;7.97;;
32228;SDS011;18717;48.034;11.186;2022-12-29T10:42:33;8.52;;;7.97;;
32228;SDS011;18717;48.034;11.186;2022-12-29T10:45:04;8.27;;;7.78;;
32228;SDS011;18717;48.034;11.186;2022-12-29T10:47:35;8.32;;;7.93;;
32228;SDS011;18717;48.034;11.186;2022-12-29T10:50:06;8.73;;;8.10;;
32228;SDS011;18717;48.034;11.186;2022-12-29T10:52:34;8.10;;;7.50;;
32228;SDS011;18717;48.034;11.186;2022-12-29T10:55:03;8.13;;;7.72;;
32228;SDS011;18717;48.034;11.186;2022-12-29T10:57:35;6.85;;;6.50;;
32228;SDS011;18717;48.034;11.186;2022-12-29T11:00:09;8.95;;;8.20;;
32228;SDS011;18717;48.034;11.186;2022-12-29T11:02:46;8.30;;;7.90;;
32228;SDS011;18717;48.034;11.186;2022-12-29T11:05:28;8.85;;;8.35;;
32228;SDS011;18717;48.034;11.186;2022-12-29T11:07:59;8.83;;;8.20;;
32228;SDS011;18717;48.034;11.186;2022-12-29T11:10:35;8.80;;;8.40;;
32228;SDS011;18717;48.034;11.186;2022-12-29T11:13:10;8.50;;;8.00;;
32228;SDS011;18717;48.034;11.186;2022-12-29T11:15:39;9.15;;;8.50;;
32228;SDS011;18717;48.034;11.186;2022-12-29T11:18:19;8.80;;;8.30;;
32228;SDS011;18717;48.034;11.186;2022-12-29T11:20:50;9.00;;;8.30;;
32228;SDS011;18717;48.034;11.186;2022-12-29T11:23:23;9.30;;;8.80;;
32228;SDS011;18717;48.034;11.186;2022-12-29T11:26:07;9.45;;;8.77;;
32228;SDS011;18717;48.034;11.186;2022-12-29T11:28:43;8.63;;;8.23;;
32228;SDS011;18717;48.034;11.186;2022-12-29T11:31:15;9.10;;;8.70;;
32228;SDS011;18717;48.034;11.186;2022-12-29T11:33:45;9.20;;;8.70;;
32228;SDS011;18717;48.034;11.186;2022-12-29T11:36:14;8.82;;;8.38;;
32228;SDS011;18717;48.034;11.186;2022-12-29T11:38:45;8.48;;;7.97;;
32228;SDS011;18717;48.034;11.186;2022-12-29T11:41:19;8.52;;;8.13;;
32228;SDS011;18717;48.034;11.186;2022-12-29T11:43:48;9.52;;;8.90;;
32228;SDS011;18717;48.034;11.186;2022-12-29T11:46:16;9.10;;;8.60;;
32228;SDS011;18717;48.034;11.186;2022-12-29T11:48:47;9.30;;;8.80;;
32228;SDS011;18717;48.034;11.186;2022-12-29T11:51:21;9.30;;;8.70;;
32228;SDS011;18717;48.034;11.186;2022-12-29T11:53:51;9.82;;;9.25;;
32228;SDS011;18717;48.034;11.186;2022-12-29T11:56:21;9.27;;;8.65;;
32228;SDS011;18717;48.034;11.186;2022-12-29T11:58:51;9.60;;;8.98;;
32228;SDS011;18717;48.034;11.186;2022-12-29T12:01:20;9.65;;;9.02;;
32228;SDS011;18717;48.034;11.186;2022-12-29T12:06:23;9.07;;;8.57;;
32228;SDS011;18717;48.034;11.186;2022-12-29T12:08:53;9.77;;;9.18;;
32228;SDS011;18717;48.034;11.186;2022-12-29T12:11:24;9.98;;;9.27;;
32228;SDS011;18717;48.034;11.186;2022-12-29T12:13:56;9.35;;;8.75;;
32228;SDS011;18717;48.034;11.186;2022-12-29T12:16:26;9.20;;;8.70;;
32228;SDS011;18717;48.034;11.186;2022-12-29T12:19:00;10.55;;;9.18;;
32228;SDS011;18717;48.034;11.186;2022-12-29T12:24:02;9.68;;;9.13;;
32228;SDS011;18717;48.034;11.186;2022-12-29T12:26:55;9.02;;;8.52;;
32228;SDS011;18717;48.034;11.186;2022-12-29T12:29:26;9.27;;;8.77;;
32228;SDS011;18717;48.034;11.186;2022-12-29T12:32:04;9.35;;;8.93;;
32228;SDS011;18717;48.034;11.186;2022-12-29T12:34:39;9.50;;;8.88;;
32228;SDS011;18717;48.034;11.186;2022-12-29T12:37:22;9.20;;;8.77;;
32228;SDS011;18717;48.034;11.186;2022-12-29T12:40:12;9.30;;;8.90;;
32228;SDS011;18717;48.034;11.186;2022-12-29T12:42:52;9.35;;;8.88;;
32228;SDS011;18717;48.034;11.186;2022-12-29T12:45:32;10.65;;;10.05;;
32228;SDS011;18717;48.034;11.186;2022-12-29T12:48:21;9.73;;;9.13;;
32228;SDS011;18717;48.034;11.186;2022-12-29T12:51:07;9.15;;;8.65;;
32228;SDS011;18717;48.034;11.186;2022-12-29T12:53:46;9.48;;;9.05;;
32228;SDS011;18717;48.034;11.186;2022-12-29T12:56:32;10.05;;;9.55;;
32228;SDS011;18717;48.034;11.186;2022-12-29T12:59:24;9.88;;;9.27;;
32228;SDS011;18717;48.034;11.186;2022-12-29T13:02:10;9.35;;;8.77;;
32228;SDS011;18717;48.034;11.186;2022-12-29T13:04:52;9.35;;;8.75;;
32228;SDS011;18717;48.034;11.186;2022-12-29T13:07:31;9.50;;;8.98;;
32228;SDS011;18717;48.034;11.186;2022-12-29T13:13:05;9.75;;;9.25;;
32228;SDS011;18717;48.034;11.186;2022-12-29T13:15:45;10.07;;;9.48;;
32228;SDS011;18717;48.034;11.186;2022-12-29T13:18:18;10.93;;;10.18;;
32228;SDS011;18717;48.034;11.186;2022-12-29T13:20:51;10.15;;;9.43;;
32228;SDS011;18717;48.034;11.186;2022-12-29T13:23:23;10.68;;;9.77;;
32228;SDS011;18717;48.034;11.186;2022-12-29T13:25:55;10.77;;;9.93;;
32228;SDS011;18717;48.034;11.186;2022-12-29T13:28:28;9.13;;;8.73;;
32228;SDS011;18717;48.034;11.186;2022-12-29T13:31:00;9.55;;;9.05;;
32228;SDS011;18717;48.034;11.186;2022-12-29T13:33:33;9.27;;;8.65;;
32228;SDS011;18717;48.034;11.186;2022-12-29T13:36:06;9.40;;;8.90;;
32228;SDS011;18717;48.034;11.186;2022-12-29T13:38:39;9.25;;;8.80;;
32228;SDS011;18717;48.034;11.186;2022-12-29T13:41:10;9.13;;;8.57;;
32228;SDS011;18717;48.034;11.186;2022-12-29T13:43:40;10.25;;;9.55;;
32228;SDS011;18717;48.034;11.186;2022-12-29T13:46:13;9.43;;;9.00;;
32228;SDS011;18717;48.034;11.186;2022-12-29T13:49:02;10.07;;;9.43;;
32228;SDS011;18717;48.034;11.186;2022-12-29T13:54:07;8.55;;;8.13;;
32228;SDS011;18717;48.034;11.186;2022-12-29T13:56:41;8.88;;;8.40;;
32228;SDS011;18717;48.034;11.186;2022-12-29T13:59:16;8.73;;;8.32;;
32228;SDS011;18717;48.034;11.186;2022-12-29T14:01:48;9.15;;;8.65;;
32228;SDS011;18717;48.034;11.186;2022-12-29T14:04:22;9.05;;;8.55;;
32228;SDS011;18717;48.034;11.186;2022-12-29T14:06:58;9.43;;;8.68;;
32228;SDS011;18717;48.034;11.186;2022-12-29T14:09:37;8.73;;;8.30;;
32228;SDS011;18717;48.034;11.186;2022-12-29T14:12:19;8.95;;;8.40;;
32228;SDS011;18717;48.034;11.186;2022-12-29T14:14:50;8.80;;;8.30;;
32228;SDS011;18717;48.034;11.186;2022-12-29T14:17:19;9.00;;;8.60;;
32228;SDS011;18717;48.034;11.186;2022-12-29T14:19:51;8.68;;;8.07;;
32228;SDS011;18717;48.034;11.186;2022-12-29T14:22:24;8.13;;;7.82;;
32228;SDS011;18717;48.034;11.186;2022-12-29T14:24:59;8.73;;;8.25;;
32228;SDS011;18717;48.034;11.186;2022-12-29T14:33:25;8.30;;;7.90;;
32228;SDS011;18717;48.034;11.186;2022-12-29T14:35:54;8.85;;;8.35;;
32228;SDS011;18717;48.034;11.186;2022-12-29T14:38:27;8.55;;;8.23;;
32228;SDS011;18717;48.034;11.186;2022-12-29T14:43:57;9.02;;;8.43;;
32228;SDS011;18717;48.034;11.186;2022-12-29T14:46:40;9.02;;;8.52;;
32228;SDS011;18717;48.034;11.186;2022-12-29T14:49:14;8.57;;;8.20;;
32228;SDS011;18717;48.034;11.186;2022-12-29T14:51:44;8.65;;;8.25;;
32228;SDS011;18717;48.034;11.186;2022-12-29T15:00:06;9.02;;;8.48;;
32228;SDS011;18717;48.034;11.186;2022-12-29T15:02:40;22.45;;;15.50;;
32228;SDS011;18717;48.034;11.186;2022-12-29T15:05:19;14.13;;;12.73;;
32228;SDS011;18717;48.034;11.186;2022-12-29T15:07:52;18.88;;;17.23;;
32228;SDS011;18717;48.034;11.186;2022-12-29T15:10:20;15.55;;;14.20;;
32228;SDS011;18717;48.034;11.186;2022-12-29T15:12:52;15.80;;;14.60;;
32228;SDS011;18717;48.034;11.186;2022-12-29T15:15:22;9.63;;;9.02;;
32228;SDS011;18717;48.034;11.186;2022-12-29T15:17:51;11.02;;;10.07;;
32228;SDS011;18717;48.034;11.186;2022-12-29T15:20:23;9.05;;;8.48;;
32228;SDS011;18717;48.034;11.186;2022-12-29T15:22:54;9.63;;;9.02;;
32228;SDS011;18717;48.034;11.186;2022-12-29T15:25:23;9.50;;;8.80;;
32228;SDS011;18717;48.034;11.186;2022-12-29T15:27:53;11.07;;;10.25;;
32228;SDS011;18717;48.034;11.186;2022-12-29T15:30:23;16.00;;;14.30;;
32228;SDS011;18717;48.034;11.186;2022-12-29T15:32:51;9.98;;;9.43;;